Time;durP1;ratioP1;P1;durP2;ratioP2;P2;SDS_P1;SDS_P2;PMS_P1;PMS_P2;Temp;Humidity;BMP_temperature;BMP_pressure;BME280_temperature;BME280_humidity;BME280_pressure;Samples;Min_cycle;Max_cycle;Signal;HPM_P1;HPM_P2
2022/03/30 00:04:44;;;;;;;8.80;5.07;;;17.10;56.60;;;;;;10371462;28;20057;-61
2022/03/30 00:09:45;;;;;;;7.97;4.65;;;17.10;56.70;;;;;;10371291;28;20073;-61
2022/03/30 00:14:47;;;;;;;5.97;4.20;;;17.00;56.60;;;;;;10371249;28;20101;-61
2022/03/30 00:19:48;;;;;;;7.82;5.22;;;17.00;56.80;;;;;;10371333;28;20054;-61
2022/03/30 00:24:48;;;;;;;5.38;4.20;;;17.00;56.50;;;;;;10370898;28;20430;-61
2022/03/30 00:29:49;;;;;;;7.32;5.18;;;17.00;57.30;;;;;;10370580;28;20062;-62
2022/03/30 00:34:49;;;;;;;6.10;5.07;;;17.00;56.80;;;;;;10388014;28;20037;-62
2022/03/30 00:39:52;;;;;;;6.22;4.38;;;17.00;56.70;;;;;;10380714;28;20073;-61
2022/03/30 00:44:54;;;;;;;6.57;4.70;;;17.00;56.50;;;;;;10388800;28;20057;-61
2022/03/30 00:49:55;;;;;;;8.20;5.32;;;17.00;56.70;;;;;;10366321;28;20030;-61
2022/03/30 00:54:57;;;;;;;9.25;5.53;;;17.00;56.20;;;;;;10384611;28;20034;-61
2022/03/30 00:59:58;;;;;;;7.38;5.25;;;17.10;55.80;;;;;;10411056;28;20025;-61
2022/03/30 01:05:00;;;;;;;6.93;4.97;;;17.20;55.50;;;;;;10409984;28;20099;-62
2022/03/30 01:10:06;;;;;;;6.63;4.90;;;17.10;55.70;;;;;;10371930;28;20081;-61
2022/03/30 01:15:09;;;;;;;6.40;4.30;;;17.10;56.00;;;;;;10365933;28;20038;-62
2022/03/30 01:20:12;;;;;;;7.53;4.90;;;17.00;56.30;;;;;;10369767;28;20037;-61
2022/03/30 01:25:13;;;;;;;7.72;4.70;;;17.00;56.50;;;;;;10369923;28;20108;-62
2022/03/30 01:35:36;;;;;;;6.40;4.55;;;17.00;56.50;;;;;;10394818;28;20469;-61
2022/03/30 01:40:37;;;;;;;6.97;4.40;;;17.00;56.60;;;;;;10415902;28;20447;-62
2022/03/30 01:45:38;;;;;;;5.22;3.95;;;17.00;56.50;;;;;;10371706;28;20034;-61
2022/03/30 01:50:39;;;;;;;6.63;4.70;;;16.90;56.50;;;;;;10372384;28;20478;-61
2022/03/30 01:55:40;;;;;;;6.80;4.55;;;16.90;56.60;;;;;;10396543;28;20072;-62
2022/03/30 02:00:41;;;;;;;8.02;5.20;;;16.90;56.50;;;;;;10417031;28;20033;-62
2022/03/30 02:05:41;;;;;;;6.85;4.88;;;17.00;55.90;;;;;;10416441;28;20450;-62
2022/03/30 02:10:42;;;;;;;5.55;4.15;;;17.10;55.40;;;;;;10416510;28;20472;-62
2022/03/30 02:15:43;;;;;;;7.40;5.03;;;17.00;55.40;;;;;;10384891;28;20126;-62
2022/03/30 02:20:44;;;;;;;6.75;4.55;;;17.10;55.10;;;;;;10408575;28;20465;-62
2022/03/30 02:25:44;;;;;;;6.22;5.03;;;17.20;55.10;;;;;;10384255;28;20115;-61
2022/03/30 02:30:45;;;;;;;8.35;5.00;;;17.10;55.10;;;;;;10375083;28;20030;-62
2022/03/30 02:35:46;;;;;;;6.93;4.68;;;17.10;55.30;;;;;;10400799;28;20061;-62
2022/03/30 02:40:46;;;;;;;6.32;4.55;;;17.00;55.40;;;;;;10344417;28;20044;-61
2022/03/30 02:45:48;;;;;;;5.97;4.18;;;17.00;55.60;;;;;;10390390;28;20080;-62
2022/03/30 02:50:52;;;;;;;8.60;4.00;;;16.90;56.00;;;;;;10415115;28;20033;-61
2022/03/30 02:55:53;;;;;;;8.07;4.00;;;16.90;55.80;;;;;;10377095;28;20497;-61
2022/03/30 03:00:54;;;;;;;5.93;4.43;;;17.00;55.30;;;;;;10407118;28;20030;-62
2022/03/30 03:05:55;;;;;;;6.72;4.35;;;17.10;55.00;;;;;;10413971;28;20060;-62
2022/03/30 03:10:57;;;;;;;5.90;4.13;;;17.10;54.80;;;;;;10414186;28;20121;-62
2022/03/30 03:15:58;;;;;;;4.97;3.58;;;17.20;54.80;;;;;;10413142;28;20387;-62
2022/03/30 03:20:59;;;;;;;6.93;4.57;;;17.20;54.70;;;;;;10369827;28;20033;-62
2022/03/30 03:25:59;;;;;;;5.55;4.13;;;17.20;54.70;;;;;;10360667;28;20029;-61
2022/03/30 03:31:00;;;;;;;6.10;4.15;;;17.10;54.80;;;;;;10397421;28;20409;-61
2022/03/30 03:36:01;;;;;;;6.65;3.97;;;17.00;55.10;;;;;;10383334;28;20033;-62
2022/03/30 03:41:02;;;;;;;5.70;3.95;;;17.00;55.20;;;;;;10367979;28;20025;-61
2022/03/30 03:46:02;;;;;;;5.65;3.92;;;17.10;54.90;;;;;;10372023;28;20073;-61
2022/03/30 03:51:03;;;;;;;4.90;3.40;;;17.10;54.80;;;;;;10372149;28;20050;-61
2022/03/30 03:56:05;;;;;;;8.20;4.50;;;17.00;55.10;;;;;;10374995;28;20034;-61
2022/03/30 04:01:06;;;;;;;6.50;4.43;;;17.00;55.40;;;;;;10380851;28;20088;-61
2022/03/30 04:06:06;;;;;;;5.18;3.70;;;17.10;54.80;;;;;;10411650;28;20065;-62
2022/03/30 04:11:07;;;;;;;5.65;3.47;;;17.10;54.80;;;;;;10411495;28;20069;-62
2022/03/30 04:16:08;;;;;;;7.15;4.72;;;17.10;54.80;;;;;;10390975;28;20049;-62
2022/03/30 04:21:10;;;;;;;5.03;4.05;;;17.00;55.00;;;;;;10387525;28;20026;-61
2022/03/30 04:26:12;;;;;;;4.93;3.40;;;17.00;54.80;;;;;;10387036;28;20033;-62
2022/03/30 04:31:13;;;;;;;4.63;3.53;;;17.20;54.50;;;;;;10369111;28;20347;-61
2022/03/30 04:36:13;;;;;;;5.60;4.28;;;17.10;54.40;;;;;;10391887;28;20490;-62
2022/03/30 04:41:14;;;;;;;5.10;4.10;;;17.10;54.60;;;;;;10366582;28;20098;-62
2022/03/30 04:46:15;;;;;;;8.38;3.97;;;17.00;54.60;;;;;;10366986;28;20100;-62
2022/03/30 04:51:16;;;;;;;6.70;4.03;;;17.00;55.00;;;;;;10372053;28;20069;-62
2022/03/30 04:56:16;;;;;;;5.03;3.80;;;17.00;54.70;;;;;;10398453;28;20167;-61
2022/03/30 05:01:17;;;;;;;7.07;3.67;;;17.10;54.50;;;;;;10412658;28;20537;-61
2022/03/30 05:06:18;;;;;;;8.77;3.90;;;17.10;54.60;;;;;;10358795;28;20046;-61
2022/03/30 05:11:18;;;;;;;13.57;4.72;;;17.20;54.70;;;;;;10371523;28;20477;-63
2022/03/30 05:16:19;;;;;;;10.90;4.43;;;17.30;54.50;;;;;;10403987;28;20044;-61
2022/03/30 05:21:20;;;;;;;7.72;4.10;;;17.30;54.60;;;;;;10389568;28;20025;-61
2022/03/30 05:26:21;;;;;;;14.88;4.72;;;17.30;55.50;;;;;;10405748;28;20458;-60
2022/03/30 05:31:21;;;;;;;13.77;4.93;;;17.20;55.50;;;;;;10376440;28;20049;-61
2022/03/30 05:36:22;;;;;;;13.52;6.10;;;17.20;55.50;;;;;;10411510;28;20057;-62
2022/03/30 05:41:23;;;;;;;12.63;4.57;;;17.20;56.00;;;;;;10419611;28;20159;-63
2022/03/30 05:46:24;;;;;;;9.25;4.78;;;17.10;56.20;;;;;;10387377;28;20116;-61
2022/03/30 05:51:25;;;;;;;15.30;5.28;;;17.10;55.90;;;;;;10419212;28;20108;-63
2022/03/30 06:01:45;;;;;;;29.92;7.70;;;16.90;56.70;;;;;;10379817;28;20406;-63
2022/03/30 06:06:46;;;;;;;23.20;6.38;;;16.90;56.90;;;;;;10393471;28;20033;-63
2022/03/30 06:11:47;;;;;;;18.67;6.28;;;16.80;56.80;;;;;;10402762;28;20053;-60
2022/03/30 06:16:48;;;;;;;20.00;5.35;;;16.80;56.70;;;;;;10417383;28;20091;-61
2022/03/30 06:21:49;;;;;;;15.82;5.47;;;16.80;56.70;;;;;;10412259;28;20038;-63
2022/03/30 06:26:50;;;;;;;16.55;6.32;;;16.70;56.70;;;;;;10363270;28;20030;-62
2022/03/30 06:31:51;;;;;;;15.15;5.85;;;16.70;56.50;;;;;;10370189;28;20045;-63
2022/03/30 06:36:51;;;;;;;17.15;5.90;;;16.70;56.30;;;;;;10400769;28;20409;-63
2022/03/30 06:41:52;;;;;;;17.20;5.80;;;16.70;56.30;;;;;;10392481;28;20064;-63
2022/03/30 06:46:53;;;;;;;16.95;6.18;;;16.70;56.70;;;;;;10392726;28;20100;-63
2022/03/30 06:51:54;;;;;;;13.65;5.20;;;16.70;56.50;;;;;;10366103;28;20022;-63
2022/03/30 06:56:55;;;;;;;14.25;5.43;;;16.60;56.20;;;;;;10392695;28;20108;-62
2022/03/30 07:01:58;;;;;;;20.83;6.68;;;16.60;56.10;;;;;;10391977;28;20098;-62
2022/03/30 07:12:18;;;;;;;16.20;4.90;;;16.80;55.30;;;;;;10414599;28;20417;-63
2022/03/30 07:17:19;;;;;;;16.08;6.13;;;16.80;55.30;;;;;;10398264;28;20038;-63
2022/03/30 07:22:19;;;;;;;15.20;5.22;;;16.80;55.30;;;;;;10390079;28;20037;-62
2022/03/30 07:27:20;;;;;;;10.88;5.15;;;16.90;55.20;;;;;;10388728;28;20029;-62
2022/03/30 07:32:23;;;;;;;11.30;5.10;;;16.90;55.10;;;;;;10391992;28;20025;-62
2022/03/30 07:37:23;;;;;;;13.00;5.97;;;16.80;55.30;;;;;;10376980;28;20075;-62
2022/03/30 07:42:24;;;;;;;14.35;4.78;;;16.90;55.10;;;;;;10389594;28;20394;-63
2022/03/30 07:47:25;;;;;;;7.07;4.07;;;16.90;55.10;;;;;;10374268;28;20048;-61
2022/03/30 07:52:26;;;;;;;9.85;4.78;;;16.90;55.30;;;;;;10358126;28;20041;-62
2022/03/30 07:57:27;;;;;;;9.30;4.30;;;16.80;55.30;;;;;;10373813;28;20402;-61
2022/03/30 08:02:28;;;;;;;10.88;3.97;;;16.80;55.40;;;;;;10396191;28;20033;-61
2022/03/30 08:07:32;;;;;;;13.02;4.57;;;16.80;55.70;;;;;;10376587;28;20409;-62
2022/03/30 08:12:32;;;;;;;11.20;4.70;;;16.80;55.80;;;;;;10379740;28;20025;-62
2022/03/30 08:17:33;;;;;;;8.90;4.05;;;16.70;55.80;;;;;;10412607;28;20094;-62
2022/03/30 08:22:34;;;;;;;6.25;3.92;;;16.80;56.00;;;;;;10412770;28;20060;-62
2022/03/30 08:27:35;;;;;;;9.95;5.28;;;16.70;55.90;;;;;;10412814;28;20037;-61
2022/03/30 08:32:36;;;;;;;9.43;3.58;;;16.70;56.00;;;;;;10388506;28;20046;-61
2022/03/30 08:37:37;;;;;;;7.72;4.78;;;16.70;56.10;;;;;;10388694;28;20057;-61
2022/03/30 08:42:40;;;;;;;7.75;3.38;;;16.70;56.10;;;;;;10372219;28;20029;-62
2022/03/30 08:47:41;;;;;;;6.90;4.28;;;16.70;56.20;;;;;;10372302;28;20022;-61
2022/03/30 08:52:45;;;;;;;6.10;3.67;;;16.70;56.20;;;;;;10391955;28;20466;-62
2022/03/30 08:57:45;;;;;;;7.18;3.90;;;16.60;56.30;;;;;;10389841;28;20065;-61
2022/03/30 09:03:00;;;;;;;9.23;3.50;;;16.60;56.40;;;;;;10385258;28;20121;-61
2022/03/30 09:08:27;;;;;;;6.70;3.10;;;16.60;56.40;;;;;;10412246;28;20055;-61
2022/03/30 09:13:28;;;;;;;8.73;4.07;;;16.60;56.40;;;;;;10421126;28;20124;-61
2022/03/30 09:18:29;;;;;;;5.85;3.03;;;16.60;56.40;;;;;;10424858;28;20120;-61
2022/03/30 09:23:29;;;;;;;7.15;3.10;;;16.60;56.50;;;;;;10426042;28;20075;-61
2022/03/30 09:28:30;;;;;;;5.53;3.10;;;16.50;56.60;;;;;;10395250;28;20045;-61
2022/03/30 09:33:31;;;;;;;8.05;3.40;;;16.60;56.70;;;;;;10416164;28;20451;-61
2022/03/30 09:38:38;;;;;;;5.13;3.40;;;16.60;56.60;;;;;;10379664;28;20038;-61
2022/03/30 09:43:41;;;;;;;6.40;3.88;;;16.70;56.40;;;;;;10384775;28;20118;-61
2022/03/30 09:48:52;;;;;;;6.43;3.63;;;16.70;56.20;;;;;;10406323;28;20037;-60
2022/03/30 09:53:54;;;;;;;8.18;4.10;;;16.80;56.20;;;;;;10392306;28;20058;-61
2022/03/30 09:59:05;;;;;;;5.43;3.00;;;16.80;56.30;;;;;;10376603;28;20598;-61
2022/03/30 10:04:08;;;;;;;6.05;4.00;;;16.80;56.20;;;;;;10360089;28;20030;-60
2022/03/30 10:09:08;;;;;;;6.95;3.60;;;16.90;56.20;;;;;;10387134;28;20049;-63
2022/03/30 10:14:10;;;;;;;5.30;3.15;;;16.90;56.30;;;;;;10378765;28;20068;-61
2022/03/30 10:19:11;;;;;;;4.88;3.45;;;16.90;56.20;;;;;;10360163;28;20088;-64
2022/03/30 10:24:51;;;;;;;6.90;2.92;;;16.90;56.30;;;;;;10393149;28;20030;-62
2022/03/30 10:29:54;;;;;;;6.22;3.08;;;17.00;56.50;;;;;;10416453;28;20041;-62
2022/03/30 10:35:04;;;;;;;6.28;3.35;;;17.00;56.60;;;;;;10412574;28;20040;-62
2022/03/30 10:40:10;;;;;;;6.90;2.90;;;17.10;56.70;;;;;;10381413;28;20068;-62
2022/03/30 10:45:36;;;;;;;9.57;3.20;;;17.20;57.40;;;;;;10376457;28;20022;-61
2022/03/30 10:50:44;;;;;;;6.82;3.60;;;17.20;60.40;;;;;;10416121;28;20033;-63
2022/03/30 10:55:44;;;;;;;7.78;3.42;;;17.40;61.20;;;;;;10376245;28;20064;-62
2022/03/30 11:00:45;;;;;;;4.75;3.25;;;17.50;62.90;;;;;;10405221;28;20116;-63
2022/03/30 11:06:01;;;;;;;5.50;3.92;;;17.70;62.90;;;;;;10400006;28;20105;-62
2022/03/30 11:11:04;;;;;;;7.55;3.38;;;17.90;61.70;;;;;;10377445;28;20030;-63
2022/03/30 11:16:11;;;;;;;7.07;3.50;;;17.90;60.50;;;;;;10377036;28;20496;-64
2022/03/30 11:21:17;;;;;;;5.80;2.97;;;17.80;60.40;;;;;;10411573;28;20037;-62
2022/03/30 11:26:17;;;;;;;8.13;3.00;;;17.50;60.30;;;;;;10375041;28;20033;-64
2022/03/30 11:31:23;;;;;;;9.88;3.63;;;17.40;59.90;;;;;;10374461;28;20479;-63
2022/03/30 11:36:24;;;;;;;10.23;4.88;;;17.30;59.80;;;;;;10374788;28;20025;-61
2022/03/30 11:41:25;;;;;;;7.90;2.83;;;17.30;59.80;;;;;;10376783;28;20033;-63
2022/03/30 11:46:30;;;;;;;11.32;2.70;;;17.20;59.70;;;;;;10375775;28;20112;-60
2022/03/30 11:51:32;;;;;;;9.45;3.85;;;17.20;59.70;;;;;;10377039;28;20038;-61
2022/03/30 11:56:33;;;;;;;7.40;3.17;;;17.20;59.60;;;;;;10385572;28;20037;-61
2022/03/30 12:01:37;;;;;;;5.43;2.67;;;17.20;59.50;;;;;;10392155;28;20045;-61
2022/03/30 12:06:48;;;;;;;5.93;2.88;;;17.20;59.30;;;;;;10413105;28;20180;-60
2022/03/30 12:11:49;;;;;;;6.18;2.80;;;17.20;59.20;;;;;;10378121;28;20026;-60
2022/03/30 12:16:50;;;;;;;10.52;3.13;;;17.20;58.90;;;;;;10379473;28;20041;-60
2022/03/30 12:21:50;;;;;;;7.40;2.70;;;17.20;59.00;;;;;;10412590;28;20025;-60
2022/03/30 12:26:52;;;;;;;7.65;2.63;;;17.20;58.80;;;;;;10366612;28;20136;-58
2022/03/30 12:31:57;;;;;;;10.82;3.58;;;17.20;58.70;;;;;;10388910;28;20033;-61
2022/03/30 12:37:01;;;;;;;16.98;3.45;;;17.20;58.80;;;;;;10375278;28;20025;-61
2022/03/30 12:42:10;;;;;;;10.02;3.22;;;17.30;59.00;;;;;;10372529;28;20033;-61
2022/03/30 12:47:24;;;;;;;15.03;3.40;;;17.40;58.90;;;;;;10372232;28;20030;-61
2022/03/30 12:52:34;;;;;;;13.35;4.18;;;17.40;58.80;;;;;;10376127;28;20068;-60
2022/03/30 12:57:35;;;;;;;14.15;3.50;;;17.40;58.90;;;;;;10371121;28;20489;-60
2022/03/30 13:02:36;;;;;;;16.17;4.38;;;17.50;59.00;;;;;;10375444;28;20099;-59
2022/03/30 13:07:51;;;;;;;14.40;3.20;;;17.50;59.00;;;;;;10371088;28;20543;-59
2022/03/30 13:12:55;;;;;;;13.73;3.80;;;17.50;59.00;;;;;;10393759;28;20040;-60
2022/03/30 13:18:06;;;;;;;14.98;3.15;;;17.50;59.00;;;;;;10411812;28;20026;-61
2022/03/30 13:23:10;;;;;;;10.80;3.13;;;17.40;59.00;;;;;;10403613;28;20125;-60
2022/03/30 13:28:24;;;;;;;7.85;2.80;;;17.40;59.00;;;;;;10380386;28;20029;-60
2022/03/30 13:33:25;;;;;;;7.38;3.00;;;17.30;59.10;;;;;;10387179;28;20041;-60
2022/03/30 13:38:26;;;;;;;12.63;3.15;;;17.30;59.20;;;;;;10419823;28;20435;-60
2022/03/30 13:43:26;;;;;;;12.25;4.00;;;17.30;59.30;;;;;;10408121;28;20469;-60
2022/03/30 13:48:27;;;;;;;13.18;3.25;;;17.20;59.60;;;;;;10395179;28;20080;-60
2022/03/30 13:53:30;;;;;;;9.77;2.75;;;17.30;59.40;;;;;;10396574;28;20060;-61
2022/03/30 13:58:32;;;;;;;15.43;3.80;;;17.30;59.20;;;;;;10396829;28;20037;-61
2022/03/30 14:03:34;;;;;;;29.23;4.90;;;17.30;59.50;;;;;;10383863;28;20037;-60
2022/03/30 14:08:34;;;;;;;36.53;5.35;;;17.40;59.00;;;;;;10392127;28;20076;-60
2022/03/30 14:13:35;;;;;;;38.70;5.15;;;17.40;58.20;;;;;;10374288;28;20467;-60
2022/03/30 14:18:36;;;;;;;26.77;5.72;;;17.30;57.70;;;;;;10392775;28;20040;-60
2022/03/30 14:23:39;;;;;;;32.97;4.85;;;17.30;57.20;;;;;;10394317;28;20391;-59
2022/03/30 14:28:40;;;;;;;33.47;5.93;;;17.30;56.90;;;;;;10376859;28;20034;-59
2022/03/30 14:33:41;;;;;;;27.08;4.15;;;17.30;57.60;;;;;;10395521;28;20040;-60
2022/03/30 14:38:42;;;;;;;22.50;4.88;;;17.30;57.90;;;;;;10375784;28;20030;-60
2022/03/30 14:43:43;;;;;;;19.58;4.28;;;17.20;58.00;;;;;;10385925;28;20050;-59
2022/03/30 14:48:43;;;;;;;17.23;3.92;;;17.20;58.20;;;;;;10399874;28;20549;-62
2022/03/30 14:53:45;;;;;;;15.05;4.38;;;17.20;58.40;;;;;;10384573;28;20025;-60
2022/03/30 14:58:47;;;;;;;29.08;6.55;;;17.20;58.60;;;;;;10380041;28;20161;-60
2022/03/30 15:03:48;;;;;;;18.52;4.32;;;17.20;58.60;;;;;;10405346;28;20103;-61
2022/03/30 15:08:50;;;;;;;18.95;3.90;;;17.20;58.70;;;;;;10388660;28;20640;-61
2022/03/30 15:13:53;;;;;;;20.67;4.13;;;17.10;58.70;;;;;;10372788;28;20037;-61
2022/03/30 15:18:54;;;;;;;17.17;3.95;;;17.10;58.70;;;;;;10391406;28;20044;-61
2022/03/30 15:23:56;;;;;;;13.40;3.80;;;17.10;58.80;;;;;;10376704;28;20048;-60
2022/03/30 15:29:01;;;;;;;15.77;3.85;;;17.00;58.70;;;;;;10388392;28;20060;-60
2022/03/30 15:34:02;;;;;;;16.17;4.10;;;17.00;58.70;;;;;;10373862;28;20109;-60
2022/03/30 15:39:03;;;;;;;12.35;4.15;;;17.00;58.60;;;;;;10386281;28;20060;-60
2022/03/30 15:44:07;;;;;;;13.30;3.33;;;17.00;58.70;;;;;;10374187;28;20040;-61
2022/03/30 15:49:08;;;;;;;11.85;3.80;;;17.00;58.70;;;;;;10387509;28;20060;-61
2022/03/30 15:54:09;;;;;;;10.82;2.90;;;17.00;58.70;;;;;;10380371;28;20421;-61
2022/03/30 15:59:10;;;;;;;10.32;2.63;;;17.00;58.50;;;;;;10372082;28;20037;-61
2022/03/30 16:04:11;;;;;;;7.60;2.40;;;16.90;58.60;;;;;;10372585;28;20339;-61
2022/03/30 16:09:11;;;;;;;14.60;3.05;;;17.00;58.60;;;;;;10368254;28;20073;-61
2022/03/30 16:14:13;;;;;;;10.20;2.63;;;16.90;59.20;;;;;;10377758;28;20044;-61
2022/03/30 16:19:15;;;;;;;8.38;2.45;;;16.90;58.50;;;;;;10360110;28;20041;-61
2022/03/30 16:24:22;;;;;;;11.43;2.33;;;16.90;58.60;;;;;;10384977;28;20472;-61
2022/03/30 16:29:25;;;;;;;7.00;2.15;;;16.90;58.60;;;;;;10409368;28;20037;-61
2022/03/30 16:34:26;;;;;;;24.83;4.28;;;16.80;58.50;;;;;;10367213;28;20033;-60
2022/03/30 16:39:32;;;;;;;11.98;3.25;;;16.90;58.90;;;;;;10377711;28;20038;-58
2022/03/30 16:44:32;;;;;;;15.65;5.28;;;16.90;58.80;;;;;;10377758;28;20055;-57
2022/03/30 16:49:33;;;;;;;13.13;4.68;;;17.10;59.90;;;;;;10385896;28;20048;-57
2022/03/30 16:54:35;;;;;;;18.70;4.10;;;17.20;59.90;;;;;;10380113;28;20029;-58
2022/03/30 16:59:35;;;;;;;22.00;4.97;;;17.20;60.40;;;;;;10412271;28;20030;-60
2022/03/30 17:04:36;;;;;;;9.52;3.30;;;17.20;60.10;;;;;;10412038;28;20033;-59
2022/03/30 17:14:58;;;;;;;9.53;3.13;;;16.90;59.10;;;;;;10379166;28;20046;-59
2022/03/30 17:19:59;;;;;;;9.70;2.83;;;16.80;58.90;;;;;;10382204;28;20855;-59
2022/03/30 17:24:59;;;;;;;15.55;3.13;;;16.80;59.30;;;;;;10401934;28;20037;-60
2022/03/30 17:30:00;;;;;;;8.68;2.08;;;16.80;58.70;;;;;;10395813;28;20062;-58
2022/03/30 17:35:01;;;;;;;6.00;2.58;;;16.80;58.60;;;;;;10394024;28;20434;-58
2022/03/30 17:40:02;;;;;;;9.70;2.45;;;16.80;58.50;;;;;;10401177;28;20538;-60
2022/03/30 17:45:04;;;;;;;5.22;2.08;;;16.80;58.30;;;;;;10380832;28;20048;-58
2022/03/30 17:55:27;;;;;;;7.13;2.50;;;16.80;58.70;;;;;;10382500;28;20046;-58
2022/03/30 18:00:30;;;;;;;5.53;2.38;;;16.80;58.10;;;;;;10373635;28;20085;-59
2022/03/30 18:05:31;;;;;;;12.50;3.55;;;16.70;58.00;;;;;;10380557;28;20029;-60
2022/03/30 18:10:33;;;;;;;6.72;2.08;;;16.70;58.50;;;;;;10387622;28;20498;-60
2022/03/30 18:15:34;;;;;;;8.05;3.38;;;16.70;58.70;;;;;;10415347;28;20121;-60
2022/03/30 18:20:35;;;;;;;10.07;2.38;;;16.80;58.70;;;;;;10377714;28;20048;-60
2022/03/30 18:25:37;;;;;;;8.07;2.38;;;16.80;58.50;;;;;;10391511;28;20041;-61
2022/03/30 18:30:40;;;;;;;11.30;2.13;;;16.70;58.60;;;;;;10380260;28;20026;-60
2022/03/30 18:35:41;;;;;;;6.38;1.63;;;16.80;58.50;;;;;;10389736;28;20121;-60
2022/03/30 18:40:44;;;;;;;5.28;1.60;;;16.80;58.60;;;;;;10389322;28;20486;-60
2022/03/30 18:45:46;;;;;;;3.15;1.60;;;16.70;58.50;;;;;;10395204;28;20461;-60
2022/03/30 18:50:46;;;;;;;4.38;1.63;;;16.80;58.50;;;;;;10369365;28;20040;-59
2022/03/30 18:55:47;;;;;;;5.88;2.15;;;16.80;58.50;;;;;;10380176;28;20524;-59
2022/03/30 19:00:48;;;;;;;7.28;1.77;;;16.80;58.50;;;;;;10383661;28;20117;-59
2022/03/30 19:05:50;;;;;;;5.28;2.03;;;16.80;58.50;;;;;;10384377;28;20113;-60
2022/03/30 19:10:52;;;;;;;15.07;3.45;;;16.80;58.50;;;;;;10399312;28;20100;-60
2022/03/30 19:15:53;;;;;;;4.45;2.88;;;16.80;58.60;;;;;;10373555;28;20030;-60
2022/03/30 19:20:54;;;;;;;5.03;1.55;;;16.80;58.70;;;;;;10384014;28;20121;-59
2022/03/30 19:25:55;;;;;;;9.25;2.30;;;16.70;58.60;;;;;;10392187;28;20022;-59
2022/03/30 19:30:56;;;;;;;3.70;2.15;;;16.70;58.70;;;;;;10391746;28;20058;-59
2022/03/30 19:35:57;;;;;;;6.25;2.13;;;16.70;58.50;;;;;;10367181;28;20112;-59
2022/03/30 19:40:58;;;;;;;5.38;1.98;;;16.70;58.60;;;;;;10386354;28;20060;-60
2022/03/30 19:45:59;;;;;;;3.88;2.33;;;16.70;58.50;;;;;;10380002;28;20038;-60
2022/03/30 19:51:00;;;;;;;6.38;1.85;;;16.70;58.50;;;;;;10363306;28;20215;-59
2022/03/30 19:56:01;;;;;;;8.60;2.00;;;16.70;58.50;;;;;;10406191;28;20068;-59
2022/03/30 20:01:02;;;;;;;5.85;2.75;;;16.70;58.30;;;;;;10379591;28;20053;-59
2022/03/30 20:06:04;;;;;;;3.67;1.63;;;16.70;58.50;;;;;;10404831;28;20410;-60
2022/03/30 20:11:04;;;;;;;3.25;1.88;;;16.70;58.40;;;;;;10389949;28;20514;-59
2022/03/30 20:16:05;;;;;;;11.05;1.95;;;16.70;58.20;;;;;;10368361;28;20026;-60
2022/03/30 20:21:06;;;;;;;4.25;1.90;;;16.70;58.10;;;;;;10389013;28;20041;-59
2022/03/30 20:26:07;;;;;;;2.50;1.10;;;16.70;58.10;;;;;;10367202;28;20093;-60
2022/03/30 20:31:07;;;;;;;3.25;1.30;;;16.80;57.90;;;;;;10362922;28;20105;-59
2022/03/30 20:36:08;;;;;;;3.67;1.50;;;16.80;57.70;;;;;;10361207;28;20410;-58
2022/03/30 20:41:09;;;;;;;5.53;1.60;;;16.80;57.70;;;;;;10383190;28;20029;-60
2022/03/30 20:46:10;;;;;;;2.92;1.30;;;16.80;57.40;;;;;;10404469;28;20117;-59
2022/03/30 20:51:10;;;;;;;4.35;1.05;;;16.90;57.10;;;;;;10365027;28;20101;-59
2022/03/30 20:56:11;;;;;;;2.60;1.02;;;16.90;57.00;;;;;;10404000;28;20111;-59
2022/03/30 21:01:12;;;;;;;2.55;1.48;;;16.90;57.00;;;;;;10395355;28;20045;-59
2022/03/30 21:06:13;;;;;;;5.75;2.08;;;16.90;57.10;;;;;;10370017;28;20105;-58
2022/03/30 21:11:14;;;;;;;2.90;1.10;;;16.80;57.10;;;;;;10370409;28;20050;-59
2022/03/30 21:16:15;;;;;;;1.67;1.08;;;16.80;57.20;;;;;;10365713;28;20034;-60
2022/03/30 21:21:16;;;;;;;1.55;0.65;;;16.80;57.40;;;;;;10369966;28;20473;-59
2022/03/30 21:26:17;;;;;;;2.28;1.00;;;16.80;57.00;;;;;;10369805;28;20037;-59
2022/03/30 21:31:18;;;;;;;2.58;0.90;;;16.90;56.60;;;;;;10369793;28;20025;-59
2022/03/30 21:36:20;;;;;;;2.08;0.75;;;17.00;56.60;;;;;;10396541;28;20048;-59
2022/03/30 21:41:20;;;;;;;1.65;0.95;;;16.90;56.60;;;;;;10389688;28;20156;-59
2022/03/30 21:46:21;;;;;;;3.30;1.50;;;16.90;56.70;;;;;;10389572;28;20114;-60
2022/03/30 21:51:22;;;;;;;3.38;1.02;;;16.80;56.70;;;;;;10386378;28;20030;-59
2022/03/30 21:56:23;;;;;;;1.55;0.70;;;16.80;56.90;;;;;;10400577;28;20486;-59
2022/03/30 22:01:24;;;;;;;1.80;1.02;;;16.80;56.70;;;;;;10373696;28;20494;-60
2022/03/30 22:06:25;;;;;;;2.67;0.80;;;16.90;56.40;;;;;;10395106;28;20034;-60
2022/03/30 22:11:26;;;;;;;2.55;0.88;;;17.00;56.10;;;;;;10399674;28;20410;-59
2022/03/30 22:16:27;;;;;;;1.83;0.98;;;17.00;55.90;;;;;;10373825;28;20030;-59
2022/03/30 22:21:28;;;;;;;0.77;0.52;;;17.00;56.00;;;;;;10395677;28;20025;-59
2022/03/30 22:26:29;;;;;;;1.73;1.00;;;16.90;56.20;;;;;;10361868;28;20026;-60
2022/03/30 22:36:49;;;;;;;1.27;0.60;;;17.00;55.90;;;;;;10395571;28;20045;-59
2022/03/30 22:41:50;;;;;;;1.45;0.98;;;17.00;55.90;;;;;;10402094;28;20025;-59
2022/03/30 22:46:52;;;;;;;1.88;0.70;;;17.00;55.90;;;;;;10413546;28;20551;-59
2022/03/30 22:51:53;;;;;;;1.63;0.65;;;16.90;56.10;;;;;;10378792;28;20065;-60
2022/03/30 22:56:54;;;;;;;1.30;0.60;;;16.90;55.90;;;;;;10363834;28;20038;-59
2022/03/30 23:01:55;;;;;;;1.55;0.70;;;17.00;55.70;;;;;;10374153;28;20033;-60
2022/03/30 23:12:15;;;;;;;1.55;0.80;;;16.90;55.90;;;;;;10373916;28;20037;-59
2022/03/30 23:17:16;;;;;;;2.10;1.15;;;16.90;55.90;;;;;;10373389;28;20026;-60
2022/03/30 23:22:17;;;;;;;1.45;0.50;;;17.00;55.70;;;;;;10373345;28;20025;-59
2022/03/30 23:27:18;;;;;;;2.45;1.35;;;17.00;55.70;;;;;;10368589;28;20030;-59
2022/03/30 23:32:18;;;;;;;0.65;0.32;;;16.90;55.80;;;;;;10389382;28;20032;-59
2022/03/30 23:37:21;;;;;;;1.02;0.45;;;16.90;56.00;;;;;;10388723;28;20394;-59
2022/03/30 23:42:21;;;;;;;1.02;0.60;;;16.90;55.60;;;;;;10372618;28;20033;-60
2022/03/30 23:47:22;;;;;;;1.20;0.60;;;17.00;55.60;;;;;;10372970;28;20512;-58
2022/03/30 23:52:23;;;;;;;1.60;0.55;;;16.90;55.60;;;;;;10379822;28;20402;-59
